Time;durP1;ratioP1;P1;durP2;ratioP2;P2;SDS_P1;SDS_P2;PMS_P1;PMS_P2;Temp;Humidity;BMP_temperature;BMP_pressure;BME280_temperature;BME280_humidity;BME280_pressure;Samples;Min_cycle;Max_cycle;Signal;HPM_P1;HPM_P2
2022/10/01 00:02:11;;;;;;;5.60;4.90;;;12.40;99.90;;;;;;5022986;28;20193;-66
2022/10/01 00:04:38;;;;;;;10.70;6.60;;;12.30;99.90;;;;;;5027755;28;20184;-66
2022/10/01 00:07:08;;;;;;;5.87;5.27;;;12.40;99.90;;;;;;5026845;28;20208;-66
2022/10/01 00:09:33;;;;;;;6.00;5.50;;;12.30;99.90;;;;;;5024533;28;20435;-66
2022/10/01 00:11:59;;;;;;;6.47;5.07;;;12.40;99.90;;;;;;5029185;28;20447;-66
2022/10/01 00:14:26;;;;;;;5.20;4.70;;;12.30;99.90;;;;;;5019868;28;20206;-67
2022/10/01 00:16:52;;;;;;;6.13;5.10;;;12.40;99.90;;;;;;5027164;28;20635;-66
2022/10/01 00:19:17;;;;;;;7.30;4.90;;;12.40;99.90;;;;;;5022082;28;20435;-66
2022/10/01 00:21:43;;;;;;;5.80;4.40;;;12.40;99.90;;;;;;5021373;28;20200;-66
2022/10/01 00:24:11;;;;;;;6.40;4.87;;;12.40;99.90;;;;;;5025994;28;20250;-66
2022/10/01 00:26:37;;;;;;;6.30;5.00;;;12.40;99.90;;;;;;5027736;28;20909;-66
2022/10/01 00:29:10;;;;;;;7.93;5.30;;;12.40;99.90;;;;;;5018892;28;20649;-66
2022/10/01 00:31:36;;;;;;;5.13;4.27;;;12.30;99.90;;;;;;5013880;28;20625;-66
2022/10/01 00:34:02;;;;;;;5.23;4.60;;;12.30;99.90;;;;;;5020179;28;20939;-66
2022/10/01 00:36:29;;;;;;;5.67;4.97;;;12.30;99.90;;;;;;5026056;28;20251;-65
2022/10/01 00:38:59;;;;;;;5.80;5.00;;;12.30;99.90;;;;;;5022745;28;20434;-66
2022/10/01 00:41:26;;;;;;;5.53;4.97;;;12.30;99.90;;;;;;5020301;28;20874;-65
2022/10/01 00:43:56;;;;;;;6.27;4.70;;;12.40;99.90;;;;;;5015598;28;20815;-65
2022/10/01 00:46:43;;;;;;;6.90;4.80;;;12.30;99.90;;;;;;5020408;28;20450;-65
2022/10/01 00:49:20;;;;;;;8.17;5.00;;;12.40;99.90;;;;;;5027894;28;20442;-65
2022/10/01 00:51:51;;;;;;;5.40;4.70;;;12.30;99.90;;;;;;5018137;28;20450;-65
2022/10/01 00:54:25;;;;;;;5.40;4.60;;;12.30;99.90;;;;;;5019638;28;20506;-66
2022/10/01 00:56:54;;;;;;;9.13;5.53;;;12.20;99.90;;;;;;5020585;28;20525;-66
2022/10/01 00:59:20;;;;;;;5.83;4.33;;;12.20;99.90;;;;;;5023212;28;20570;-66
2022/10/01 01:01:50;;;;;;;5.33;4.70;;;12.30;99.90;;;;;;5016818;28;20545;-66
2022/10/01 01:04:15;;;;;;;7.07;4.97;;;12.30;99.90;;;;;;5024029;28;20259;-66
2022/10/01 01:06:56;;;;;;;4.57;4.00;;;12.30;99.90;;;;;;5022578;28;20514;-66
2022/10/01 01:09:24;;;;;;;9.00;4.93;;;12.30;99.90;;;;;;5022490;28;20628;-65
2022/10/01 01:12:13;;;;;;;4.37;3.97;;;12.30;99.90;;;;;;5017102;28;20524;-66
2022/10/01 01:15:16;;;;;;;4.57;4.17;;;12.30;99.90;;;;;;5015409;28;20481;-66
2022/10/01 01:17:53;;;;;;;6.47;4.30;;;12.30;99.90;;;;;;5019703;28;20433;-65
2022/10/01 01:20:37;;;;;;;10.20;4.43;;;12.30;99.90;;;;;;5013971;28;21073;-66
2022/10/01 01:23:17;;;;;;;4.70;4.00;;;12.30;99.90;;;;;;5018151;28;20966;-66
2022/10/01 01:25:51;;;;;;;7.00;4.03;;;12.30;99.90;;;;;;5019000;28;20445;-66
2022/10/01 01:28:31;;;;;;;5.00;4.50;;;12.30;99.90;;;;;;5025418;28;20448;-66
2022/10/01 01:31:07;;;;;;;4.40;4.00;;;12.30;99.90;;;;;;5022412;28;20476;-66
2022/10/01 01:33:36;;;;;;;5.57;4.10;;;12.40;99.90;;;;;;5025841;28;20466;-66
2022/10/01 01:36:14;;;;;;;5.83;4.20;;;12.40;99.90;;;;;;5019450;28;20474;-66
2022/10/01 01:38:50;;;;;;;5.13;4.37;;;12.30;99.90;;;;;;5019771;28;20434;-66
2022/10/01 01:41:19;;;;;;;7.53;4.70;;;12.20;99.90;;;;;;5026336;28;20433;-66
2022/10/01 01:43:48;;;;;;;6.20;4.80;;;12.20;99.90;;;;;;5027245;28;21212;-66
2022/10/01 01:46:16;;;;;;;6.17;4.60;;;12.20;99.90;;;;;;5019874;28;20463;-66
2022/10/01 01:48:48;;;;;;;5.40;4.30;;;12.20;99.90;;;;;;5024797;28;20436;-66
2022/10/01 01:51:23;;;;;;;5.90;4.30;;;12.20;99.90;;;;;;5028364;28;20850;-66
2022/10/01 01:53:49;;;;;;;8.03;4.70;;;12.20;99.90;;;;;;5018321;28;20458;-65
2022/10/01 01:56:16;;;;;;;6.10;4.43;;;12.20;99.90;;;;;;5025362;28;20798;-65
2022/10/01 01:58:43;;;;;;;5.00;4.03;;;12.30;99.90;;;;;;5020819;28;20369;-66
2022/10/01 02:01:43;;;;;;;6.47;4.53;;;12.30;99.90;;;;;;5027667;28;20553;-66
2022/10/01 02:04:17;;;;;;;6.30;4.70;;;12.30;99.90;;;;;;5032426;28;20950;-66
2022/10/01 02:07:04;;;;;;;5.27;4.67;;;12.40;99.90;;;;;;5014661;28;20442;-66
2022/10/01 02:09:53;;;;;;;5.37;4.40;;;12.30;99.90;;;;;;5023733;28;20986;-66
2022/10/01 02:12:40;;;;;;;5.70;3.63;;;12.30;99.90;;;;;;5013912;28;20454;-66
2022/10/01 02:15:35;;;;;;;4.87;4.33;;;12.30;99.90;;;;;;5024104;28;20461;-66
2022/10/01 02:18:26;;;;;;;5.07;4.20;;;12.40;99.90;;;;;;5017893;28;20439;-66
2022/10/01 02:21:03;;;;;;;4.00;3.60;;;12.40;99.90;;;;;;5027456;28;20812;-66
2022/10/01 02:23:42;;;;;;;5.67;4.40;;;12.30;99.90;;;;;;5024469;28;20477;-66
2022/10/01 02:26:15;;;;;;;7.80;3.43;;;12.40;99.90;;;;;;5028499;28;20435;-66
2022/10/01 02:28:41;;;;;;;4.83;3.70;;;12.50;99.90;;;;;;5022021;28;20940;-66
2022/10/01 02:31:09;;;;;;;4.23;3.40;;;12.40;99.90;;;;;;5020531;28;20443;-66
2022/10/01 02:33:35;;;;;;;5.83;3.50;;;12.40;99.90;;;;;;5022008;28;20489;-66
2022/10/01 02:36:05;;;;;;;4.43;3.33;;;12.40;99.90;;;;;;5021019;28;20821;-66
2022/10/01 02:38:34;;;;;;;4.30;3.50;;;12.40;99.90;;;;;;5031937;28;20434;-66
2022/10/01 02:41:03;;;;;;;7.20;3.30;;;12.40;99.90;;;;;;5029948;28;20473;-66
2022/10/01 02:43:37;;;;;;;6.30;3.40;;;12.50;99.90;;;;;;5026424;28;21281;-66
2022/10/01 02:46:20;;;;;;;4.80;3.00;;;12.50;99.90;;;;;;5030319;28;20438;-67
2022/10/01 02:48:46;;;;;;;3.30;2.77;;;12.60;99.90;;;;;;5024906;28;20449;-66
2022/10/01 02:51:24;;;;;;;4.83;2.97;;;12.60;99.90;;;;;;5026142;28;20439;-65
2022/10/01 02:53:56;;;;;;;2.93;2.47;;;12.70;99.90;;;;;;5027565;28;20569;-66
2022/10/01 02:59:07;;;;;;;3.00;2.50;;;12.80;99.90;;;;;;5017742;28;20537;-67
2022/10/01 03:01:34;;;;;;;4.90;2.97;;;12.90;99.90;;;;;;5016487;28;20923;-67
2022/10/01 03:04:01;;;;;;;4.07;2.57;;;12.90;99.90;;;;;;5022381;28;20275;-67
2022/10/01 03:06:26;;;;;;;3.07;2.63;;;12.80;99.90;;;;;;5016667;28;20439;-67
2022/10/01 03:08:52;;;;;;;8.70;2.90;;;12.90;99.90;;;;;;5021592;28;20438;-67
2022/10/01 03:11:19;;;;;;;2.97;2.67;;;12.90;99.90;;;;;;5021141;28;20192;-68
2022/10/01 03:13:45;;;;;;;3.33;2.47;;;13.00;99.90;;;;;;5017710;28;20821;-68
2022/10/01 03:16:10;;;;;;;5.30;2.93;;;13.00;99.90;;;;;;5024810;28;20494;-67
2022/10/01 03:18:36;;;;;;;2.83;2.40;;;12.90;99.90;;;;;;5029568;28;20188;-67
2022/10/01 03:21:01;;;;;;;2.97;2.63;;;13.00;99.90;;;;;;5017375;28;20293;-67
2022/10/01 03:23:27;;;;;;;3.20;2.57;;;13.00;99.90;;;;;;5021035;28;20212;-67
2022/10/01 03:25:52;;;;;;;3.10;2.43;;;13.00;99.90;;;;;;5017007;28;20272;-66
2022/10/01 03:28:18;;;;;;;4.30;2.40;;;12.90;99.90;;;;;;5017805;28;20200;-66
2022/10/01 03:30:44;;;;;;;3.20;2.47;;;13.00;99.90;;;;;;5018675;28;20189;-68
2022/10/01 03:33:09;;;;;;;4.10;2.90;;;13.10;99.90;;;;;;5022153;28;20215;-68
2022/10/01 03:35:35;;;;;;;4.30;2.30;;;13.00;99.90;;;;;;5025405;28;20438;-68
2022/10/01 03:38:01;;;;;;;5.10;2.33;;;13.10;99.90;;;;;;5015712;28;20183;-68
2022/10/01 03:40:27;;;;;;;3.53;2.60;;;13.10;99.90;;;;;;5017816;28;20188;-68
2022/10/01 03:42:53;;;;;;;2.77;2.20;;;13.10;99.90;;;;;;5025205;28;20543;-68
2022/10/01 03:45:19;;;;;;;3.80;2.60;;;13.10;99.90;;;;;;5030046;28;20518;-68
2022/10/01 03:47:50;;;;;;;3.97;2.30;;;13.10;99.90;;;;;;5029810;28;20634;-68
2022/10/01 03:50:16;;;;;;;3.97;2.77;;;13.20;99.90;;;;;;5031462;28;20213;-68
2022/10/01 03:52:44;;;;;;;2.40;1.90;;;13.20;99.90;;;;;;5029999;28;20871;-68
2022/10/01 03:55:10;;;;;;;5.53;2.50;;;13.30;99.90;;;;;;5025659;28;20237;-67
2022/10/01 03:57:36;;;;;;;2.70;2.20;;;13.30;99.90;;;;;;5028744;28;20438;-68
2022/10/01 04:00:03;;;;;;;2.50;2.17;;;13.30;99.90;;;;;;5030198;28;20441;-68
2022/10/01 04:02:29;;;;;;;2.80;2.30;;;13.30;99.90;;;;;;5031234;28;20698;-68
2022/10/01 04:04:54;;;;;;;2.60;2.10;;;13.30;99.90;;;;;;5029075;28;20469;-67
2022/10/01 04:07:20;;;;;;;4.40;2.33;;;13.20;99.90;;;;;;5030097;28;20242;-67
2022/10/01 04:09:46;;;;;;;4.57;2.13;;;13.20;99.90;;;;;;5030955;28;20188;-67
2022/10/01 04:12:11;;;;;;;5.83;2.43;;;13.30;99.90;;;;;;5028791;28;21002;-67
2022/10/01 04:14:37;;;;;;;2.40;2.20;;;13.30;99.90;;;;;;5030389;28;20687;-67
2022/10/01 04:17:03;;;;;;;2.50;2.00;;;13.30;99.90;;;;;;5028307;28;20238;-67
2022/10/01 04:19:28;;;;;;;2.93;2.50;;;13.30;99.90;;;;;;5025012;28;20192;-67
2022/10/01 04:21:54;;;;;;;3.47;2.60;;;13.30;99.90;;;;;;5031552;28;20207;-68
2022/10/01 04:24:19;;;;;;;3.43;2.40;;;13.40;99.90;;;;;;5034009;28;20180;-67
2022/10/01 04:26:45;;;;;;;2.90;2.27;;;13.30;99.90;;;;;;5020303;28;20810;-67
2022/10/01 04:29:10;;;;;;;2.57;2.33;;;13.30;99.90;;;;;;5021163;28;20188;-67
2022/10/01 04:31:36;;;;;;;2.73;2.27;;;13.40;99.90;;;;;;5030501;28;20672;-68
2022/10/01 04:34:02;;;;;;;4.23;2.20;;;13.40;99.90;;;;;;5030579;28;20291;-67
2022/10/01 04:36:28;;;;;;;3.47;1.93;;;13.40;99.90;;;;;;5032231;28;20191;-67
2022/10/01 04:38:55;;;;;;;2.80;2.23;;;13.40;99.90;;;;;;5028990;28;20488;-67
2022/10/01 04:41:21;;;;;;;2.90;2.00;;;13.40;99.90;;;;;;5027213;28;20193;-67
2022/10/01 04:43:46;;;;;;;2.70;2.33;;;13.40;99.90;;;;;;5028560;28;20496;-67
2022/10/01 04:46:13;;;;;;;3.07;2.20;;;13.40;99.90;;;;;;5032160;28;20226;-67
2022/10/01 04:48:39;;;;;;;2.93;2.17;;;13.40;99.90;;;;;;5024478;28;20238;-68
2022/10/01 04:51:04;;;;;;;3.67;2.07;;;13.40;99.90;;;;;;5031261;28;20431;-67
2022/10/01 04:53:30;;;;;;;5.73;2.67;;;13.30;99.90;;;;;;5024053;28;20470;-67
2022/10/01 04:55:55;;;;;;;5.60;2.13;;;13.30;99.90;;;;;;5028167;28;20180;-67
2022/10/01 04:58:21;;;;;;;10.63;2.80;;;13.20;99.90;;;;;;5029011;28;21030;-67
2022/10/01 05:00:48;;;;;;;3.07;2.30;;;13.20;99.90;;;;;;5030771;28;20283;-67
2022/10/01 05:03:13;;;;;;;2.77;2.27;;;13.20;99.90;;;;;;5028859;28;20662;-68
2022/10/01 05:05:39;;;;;;;3.20;2.40;;;13.20;99.90;;;;;;5024076;28;20447;-67
2022/10/01 05:08:05;;;;;;;3.70;2.60;;;13.00;99.90;;;;;;5027631;28;20271;-67
2022/10/01 05:10:31;;;;;;;6.13;2.67;;;13.00;99.90;;;;;;5024010;28;20180;-67
2022/10/01 05:12:57;;;;;;;3.80;2.47;;;13.00;99.90;;;;;;5031177;28;20212;-68
2022/10/01 05:15:22;;;;;;;4.60;2.10;;;12.90;99.90;;;;;;5029789;28;20287;-67
2022/10/01 05:17:48;;;;;;;2.43;2.00;;;12.90;99.90;;;;;;5031165;28;20490;-67
2022/10/01 05:20:26;;;;;;;3.27;2.33;;;12.90;99.90;;;;;;5031922;28;20180;-67
2022/10/01 05:22:53;;;;;;;6.03;2.70;;;12.80;99.90;;;;;;5022603;28;20204;-67
2022/10/01 05:25:19;;;;;;;3.50;2.50;;;12.80;99.90;;;;;;5026192;28;20457;-67
2022/10/01 05:27:44;;;;;;;2.90;2.60;;;12.80;99.90;;;;;;5027107;28;20841;-67
2022/10/01 05:30:12;;;;;;;4.27;2.23;;;12.70;99.90;;;;;;5027327;28;20451;-67
2022/10/01 05:32:38;;;;;;;4.60;2.20;;;12.70;99.90;;;;;;5029927;28;20200;-67
2022/10/01 05:35:05;;;;;;;3.27;2.60;;;12.70;99.90;;;;;;5035741;28;20984;-68
2022/10/01 05:37:31;;;;;;;2.47;2.07;;;12.70;99.90;;;;;;5024886;28;20439;-68
2022/10/01 05:39:57;;;;;;;4.83;2.40;;;12.70;99.90;;;;;;5029656;28;20795;-67
2022/10/01 05:42:24;;;;;;;4.53;3.37;;;12.80;99.90;;;;;;5020114;28;20481;-67
2022/10/01 05:44:50;;;;;;;3.73;2.40;;;12.70;99.90;;;;;;5023656;28;20189;-68
2022/10/01 05:47:16;;;;;;;2.97;2.33;;;12.80;99.90;;;;;;5023805;28;20560;-67
2022/10/01 05:49:45;;;;;;;2.70;2.50;;;12.80;99.90;;;;;;5024910;28;20176;-68
2022/10/01 05:52:12;;;;;;;2.93;2.63;;;12.80;99.90;;;;;;5032180;28;20478;-67
2022/10/01 05:54:38;;;;;;;2.90;2.53;;;12.80;99.90;;;;;;5030746;28;20474;-67
2022/10/01 05:57:05;;;;;;;2.80;2.40;;;12.60;99.90;;;;;;5024365;28;20451;-67
2022/10/01 05:59:30;;;;;;;3.97;2.73;;;12.60;99.90;;;;;;5024307;28;20184;-67
2022/10/01 06:01:56;;;;;;;2.43;2.10;;;12.70;99.90;;;;;;5027382;28;20492;-67
2022/10/01 06:04:21;;;;;;;5.73;2.63;;;12.70;99.90;;;;;;5030104;28;20568;-67
2022/10/01 06:06:47;;;;;;;3.13;2.10;;;12.60;99.90;;;;;;5028724;28;20177;-67
2022/10/01 06:09:13;;;;;;;4.37;2.17;;;12.60;99.90;;;;;;5024622;28;20590;-67
2022/10/01 06:11:38;;;;;;;3.27;2.20;;;12.60;99.90;;;;;;5024494;28;20250;-67
2022/10/01 06:14:05;;;;;;;3.50;2.40;;;12.70;99.90;;;;;;5026034;28;20462;-67
2022/10/01 06:16:31;;;;;;;5.37;2.33;;;12.70;99.90;;;;;;5031820;28;20181;-67
2022/10/01 06:18:57;;;;;;;4.23;2.53;;;12.70;99.90;;;;;;5028527;28;20424;-68
2022/10/01 06:21:24;;;;;;;5.13;2.40;;;12.60;99.90;;;;;;5032749;28;20569;-67
2022/10/01 06:23:50;;;;;;;2.57;2.17;;;12.60;99.90;;;;;;5027516;28;20411;-67
2022/10/01 06:26:16;;;;;;;4.33;2.33;;;12.60;99.90;;;;;;5021440;28;20448;-68
2022/10/01 06:28:42;;;;;;;2.33;2.13;;;12.50;99.90;;;;;;5030027;28;20480;-67
2022/10/01 06:31:08;;;;;;;6.77;2.33;;;12.50;99.90;;;;;;5027796;28;20850;-68
2022/10/01 06:33:34;;;;;;;5.40;3.43;;;12.60;99.90;;;;;;5030343;28;20250;-67
2022/10/01 06:36:00;;;;;;;3.60;2.50;;;12.60;99.90;;;;;;5030024;28;20827;-67
2022/10/01 06:38:25;;;;;;;3.73;2.60;;;12.60;99.90;;;;;;5034353;28;20424;-67
2022/10/01 06:40:53;;;;;;;3.03;2.00;;;12.60;99.90;;;;;;5031299;28;20641;-68
2022/10/01 06:43:19;;;;;;;4.23;2.30;;;12.60;99.90;;;;;;5029519;28;20262;-67
2022/10/01 06:45:44;;;;;;;2.87;2.60;;;12.50;99.90;;;;;;5029093;28;20833;-67
2022/10/01 06:48:14;;;;;;;3.90;2.50;;;12.50;99.90;;;;;;5027064;28;20266;-67
2022/10/01 06:50:43;;;;;;;3.83;2.63;;;12.50;99.90;;;;;;5028664;28;20196;-67
2022/10/01 06:53:08;;;;;;;4.20;3.00;;;12.50;99.90;;;;;;5026369;28;20495;-67
2022/10/01 06:55:35;;;;;;;2.57;2.10;;;12.50;99.90;;;;;;5029903;28;20940;-67
2022/10/01 06:58:06;;;;;;;2.93;2.43;;;12.50;99.90;;;;;;5031739;28;20705;-67
2022/10/01 07:00:35;;;;;;;3.53;2.50;;;12.60;99.90;;;;;;5033464;28;20463;-67
2022/10/01 07:03:03;;;;;;;3.73;2.17;;;12.50;99.90;;;;;;5029675;28;20439;-67
2022/10/01 07:05:28;;;;;;;4.00;2.43;;;12.50;99.90;;;;;;5026544;28;20525;-67
2022/10/01 07:07:54;;;;;;;2.97;2.23;;;12.50;99.90;;;;;;5030329;28;20529;-67
2022/10/01 07:10:22;;;;;;;3.10;2.23;;;12.50;99.90;;;;;;5031024;28;20321;-67
2022/10/01 07:12:48;;;;;;;3.07;2.27;;;12.50;99.90;;;;;;5028427;28;20208;-67
2022/10/01 07:15:16;;;;;;;2.80;2.20;;;12.50;99.90;;;;;;5026526;28;20463;-67
2022/10/01 07:17:51;;;;;;;4.90;2.50;;;12.50;99.90;;;;;;5035745;28;20498;-67
2022/10/01 07:20:19;;;;;;;4.40;2.60;;;12.50;99.90;;;;;;5029218;28;20419;-67
2022/10/01 07:22:54;;;;;;;3.20;2.30;;;12.50;99.90;;;;;;5028078;28;21233;-68
2022/10/01 07:25:20;;;;;;;3.23;2.03;;;12.40;99.90;;;;;;5028798;28;20438;-67
2022/10/01 07:27:45;;;;;;;3.00;2.60;;;12.40;99.90;;;;;;5028804;28;20504;-68
2022/10/01 07:30:11;;;;;;;2.90;2.40;;;12.50;99.90;;;;;;5023908;28;20176;-67
2022/10/01 07:32:36;;;;;;;3.90;2.53;;;12.50;99.90;;;;;;5031873;28;20209;-68
2022/10/01 07:35:04;;;;;;;3.03;2.53;;;12.50;99.90;;;;;;5027834;28;20204;-67
2022/10/01 07:37:31;;;;;;;4.10;2.37;;;12.50;99.90;;;;;;5026275;28;20266;-67
2022/10/01 07:39:57;;;;;;;4.53;2.20;;;12.60;99.90;;;;;;5026045;28;20421;-67
2022/10/01 07:42:23;;;;;;;3.10;2.33;;;12.60;99.90;;;;;;5030405;28;20443;-67
2022/10/01 07:44:48;;;;;;;2.70;2.23;;;12.60;99.90;;;;;;5028749;28;20638;-67
2022/10/01 07:47:14;;;;;;;2.93;1.90;;;12.60;99.90;;;;;;5026194;28;20199;-67
2022/10/01 07:49:39;;;;;;;4.00;2.27;;;12.60;99.90;;;;;;5029019;28;20191;-67
2022/10/01 07:52:05;;;;;;;3.53;2.40;;;12.70;99.90;;;;;;5024569;28;20212;-68
2022/10/01 07:54:30;;;;;;;4.27;2.90;;;12.70;99.90;;;;;;5028980;28;20201;-69
2022/10/01 07:56:56;;;;;;;3.80;2.10;;;12.60;99.90;;;;;;5033020;28;20622;-69
2022/10/01 07:59:23;;;;;;;2.63;2.30;;;12.70;99.90;;;;;;5025130;28;20199;-67
2022/10/01 08:01:50;;;;;;;3.27;2.20;;;12.60;99.90;;;;;;5030548;28;20197;-67
2022/10/01 08:07:08;;;;;;;3.00;2.37;;;12.60;99.90;;;;;;5023788;28;20418;-67
2022/10/01 08:09:37;;;;;;;4.47;2.20;;;12.60;99.90;;;;;;5035577;28;20419;-67
2022/10/01 08:12:02;;;;;;;2.37;2.10;;;12.50;99.90;;;;;;5029765;28;20600;-66
2022/10/01 08:14:29;;;;;;;3.60;2.87;;;12.50;99.90;;;;;;5024674;28;20499;-67
2022/10/01 08:16:55;;;;;;;4.40;2.40;;;12.60;99.90;;;;;;5031928;28;20183;-67
2022/10/01 08:19:21;;;;;;;3.70;2.90;;;12.50;99.90;;;;;;5028145;28;20473;-67
2022/10/01 08:21:46;;;;;;;4.00;2.87;;;12.50;99.90;;;;;;5025578;28;20451;-67
2022/10/01 08:24:12;;;;;;;3.03;2.40;;;12.50;99.90;;;;;;5030250;28;20276;-68
2022/10/01 08:26:38;;;;;;;3.30;2.67;;;12.30;99.90;;;;;;5028341;28;20267;-68
2022/10/01 08:29:04;;;;;;;2.93;2.47;;;12.30;99.90;;;;;;5029298;28;20501;-67
2022/10/01 08:31:29;;;;;;;3.90;2.70;;;12.40;99.90;;;;;;5023644;28;20291;-67
2022/10/01 08:33:56;;;;;;;3.30;2.57;;;12.40;99.90;;;;;;5026218;28;20302;-68
2022/10/01 08:36:21;;;;;;;5.53;2.40;;;12.40;99.90;;;;;;5034094;28;20181;-67
2022/10/01 08:38:48;;;;;;;4.10;2.57;;;12.40;99.90;;;;;;5029835;28;20468;-68
2022/10/01 08:41:48;;;;;;;3.67;2.70;;;12.40;99.90;;;;;;5032726;28;20191;-68
2022/10/01 08:44:20;;;;;;;2.80;2.20;;;12.30;99.90;;;;;;5028079;28;20473;-68
2022/10/01 08:46:48;;;;;;;2.93;2.40;;;12.30;99.90;;;;;;5027035;28;20916;-68
2022/10/01 08:49:26;;;;;;;4.00;2.60;;;12.20;99.90;;;;;;5022480;28;20958;-68
2022/10/01 08:52:05;;;;;;;3.40;2.40;;;12.30;99.90;;;;;;5028433;28;20443;-67
2022/10/01 08:54:45;;;;;;;6.60;2.40;;;12.20;99.90;;;;;;5030958;28;20465;-68
2022/10/01 08:57:17;;;;;;;3.50;2.80;;;12.20;99.90;;;;;;5029740;28;20514;-68
2022/10/01 08:59:51;;;;;;;4.93;2.57;;;12.30;99.90;;;;;;5018868;28;20513;-68
2022/10/01 09:02:26;;;;;;;3.67;2.37;;;12.30;99.90;;;;;;5023444;28;20432;-68
2022/10/01 09:04:55;;;;;;;3.73;3.30;;;12.40;99.90;;;;;;5025723;28;20446;-68
2022/10/01 09:08:04;;;;;;;3.93;3.40;;;12.30;99.90;;;;;;5026662;28;20411;-68
2022/10/01 09:10:46;;;;;;;4.57;2.40;;;12.30;99.90;;;;;;4978470;28;20444;-68
2022/10/01 09:13:26;;;;;;;3.17;2.47;;;12.40;99.90;;;;;;5028121;28;20497;-68
2022/10/01 09:16:07;;;;;;;4.90;2.37;;;12.30;99.90;;;;;;5025830;28;20425;-68
2022/10/01 09:19:13;;;;;;;2.87;2.30;;;12.30;99.90;;;;;;5025153;28;21093;-69
2022/10/01 09:21:56;;;;;;;3.40;2.30;;;12.20;99.90;;;;;;5007453;28;20456;-68
2022/10/01 09:24:39;;;;;;;4.93;3.63;;;12.30;99.90;;;;;;5026725;28;20888;-69
2022/10/01 09:27:17;;;;;;;3.80;2.47;;;12.20;99.90;;;;;;5025363;28;20418;-68
2022/10/01 09:29:51;;;;;;;5.63;3.70;;;12.20;99.90;;;;;;5025186;28;21211;-68
2022/10/01 09:32:30;;;;;;;5.20;2.90;;;12.30;99.90;;;;;;5026462;28;20442;-68
2022/10/01 09:34:59;;;;;;;3.50;2.83;;;12.20;99.90;;;;;;5032921;28;20461;-68
2022/10/01 09:37:42;;;;;;;3.33;2.43;;;12.30;99.90;;;;;;5020749;28;21283;-68
2022/10/01 09:40:22;;;;;;;4.37;2.60;;;12.30;99.90;;;;;;5030740;28;20431;-68
2022/10/01 09:42:48;;;;;;;4.50;2.47;;;12.30;99.90;;;;;;5023997;28;20470;-68
2022/10/01 09:45:15;;;;;;;3.80;2.57;;;12.30;99.90;;;;;;5034154;28;20414;-68
2022/10/01 09:47:49;;;;;;;2.80;2.50;;;12.30;99.90;;;;;;5027535;28;20500;-68
2022/10/01 09:50:29;;;;;;;4.50;2.30;;;12.30;99.90;;;;;;5029372;28;20445;-68
2022/10/01 09:52:59;;;;;;;3.80;2.60;;;12.40;99.90;;;;;;5027789;28;20524;-68
2022/10/01 09:55:35;;;;;;;4.53;2.37;;;12.50;99.90;;;;;;5033464;28;20462;-68
2022/10/01 09:58:13;;;;;;;3.33;2.60;;;12.50;99.90;;;;;;5031347;28;20717;-68
2022/10/01 10:00:40;;;;;;;2.30;2.10;;;12.50;99.90;;;;;;5035185;28;20407;-68
2022/10/01 10:03:06;;;;;;;2.83;2.40;;;12.50;99.90;;;;;;5022834;28;20442;-68
2022/10/01 10:05:48;;;;;;;5.33;2.07;;;12.60;99.90;;;;;;5028639;28;20439;-68
2022/10/01 10:08:20;;;;;;;2.73;2.00;;;12.70;99.90;;;;;;5034208;28;20657;-69
2022/10/01 10:10:57;;;;;;;2.83;2.27;;;12.70;99.90;;;;;;5025842;28;20432;-68
2022/10/01 10:13:39;;;;;;;2.83;2.20;;;12.60;99.90;;;;;;5033767;28;20823;-68
2022/10/01 10:16:36;;;;;;;2.67;2.27;;;12.60;99.90;;;;;;5032818;28;20410;-68
2022/10/01 10:19:23;;;;;;;2.27;1.87;;;12.50;99.90;;;;;;5028895;28;21129;-68
2022/10/01 10:21:55;;;;;;;2.70;2.13;;;12.60;99.90;;;;;;5031336;28;20869;-68
2022/10/01 10:24:30;;;;;;;2.90;2.20;;;12.60;99.90;;;;;;5027855;28;20460;-68
2022/10/01 10:26:58;;;;;;;2.80;2.20;;;12.70;99.90;;;;;;5024980;28;20442;-68
2022/10/01 10:29:29;;;;;;;3.47;2.07;;;12.60;99.90;;;;;;5024839;28;20461;-68
2022/10/01 10:31:56;;;;;;;2.90;2.10;;;12.70;99.90;;;;;;5025235;28;20464;-68
2022/10/01 10:34:41;;;;;;;4.00;2.60;;;12.80;99.90;;;;;;5026879;28;20863;-68
2022/10/01 10:37:14;;;;;;;2.53;2.03;;;12.90;99.90;;;;;;5027541;28;21173;-69
2022/10/01 10:39:44;;;;;;;2.33;1.87;;;12.90;99.90;;;;;;5030355;28;20437;-68
2022/10/01 10:42:14;;;;;;;4.53;2.57;;;13.00;99.90;;;;;;5029243;28;20888;-68
2022/10/01 10:44:43;;;;;;;2.57;2.20;;;12.90;99.90;;;;;;5033762;28;20418;-68
2022/10/01 10:47:13;;;;;;;2.17;1.73;;;12.90;99.90;;;;;;5030548;28;20434;-68
2022/10/01 10:50:01;;;;;;;2.97;2.67;;;12.80;99.90;;;;;;5032353;28;20414;-68
2022/10/01 10:52:35;;;;;;;2.30;2.10;;;12.90;99.90;;;;;;5027883;28;20542;-68
2022/10/01 10:55:20;;;;;;;2.90;1.93;;;13.00;99.90;;;;;;5026924;28;21082;-68
2022/10/01 10:57:46;;;;;;;8.67;2.13;;;13.00;99.90;;;;;;5031484;28;20411;-68
2022/10/01 11:00:15;;;;;;;2.47;1.90;;;13.00;99.90;;;;;;5033857;28;20472;-68
2022/10/01 11:02:57;;;;;;;2.70;1.83;;;13.00;99.90;;;;;;5029130;28;20193;-68
2022/10/01 11:05:28;;;;;;;3.30;2.03;;;13.00;99.90;;;;;;5018906;28;20450;-68
2022/10/01 11:07:58;;;;;;;2.50;1.97;;;13.00;99.90;;;;;;5031158;28;20432;-68
2022/10/01 11:10:47;;;;;;;3.10;2.80;;;12.90;99.90;;;;;;5018850;28;21109;-68
2022/10/01 11:13:32;;;;;;;4.23;1.77;;;12.90;99.90;;;;;;5030968;28;20434;-68
2022/10/01 11:16:35;;;;;;;3.10;2.07;;;13.00;99.90;;;;;;5030416;28;20578;-68
2022/10/01 11:19:13;;;;;;;3.43;1.90;;;12.90;99.90;;;;;;5031277;28;20442;-68
2022/10/01 11:22:17;;;;;;;4.23;3.03;;;13.00;99.90;;;;;;5027732;28;20462;-68
2022/10/01 11:24:59;;;;;;;3.87;2.43;;;13.00;99.90;;;;;;5028089;28;20519;-68
2022/10/01 11:27:59;;;;;;;2.90;2.20;;;13.10;99.90;;;;;;5031067;28;20419;-68
2022/10/01 11:30:36;;;;;;;2.20;1.90;;;13.20;99.90;;;;;;5032104;28;21016;-68
2022/10/01 11:33:21;;;;;;;3.30;1.70;;;13.20;99.90;;;;;;5029541;28;20466;-68
2022/10/01 11:35:48;;;;;;;2.83;1.80;;;13.30;99.90;;;;;;5020846;28;20431;-68
2022/10/01 11:38:44;;;;;;;2.20;1.93;;;13.30;99.90;;;;;;5024904;28;20557;-68
2022/10/01 11:41:48;;;;;;;1.90;1.63;;;13.30;99.90;;;;;;5027216;28;20419;-67
2022/10/01 11:44:35;;;;;;;2.07;1.60;;;13.40;99.90;;;;;;5000978;28;20415;-67
2022/10/01 11:47:14;;;;;;;2.23;1.60;;;13.50;99.90;;;;;;5022766;28;20427;-68
2022/10/01 11:49:49;;;;;;;2.97;1.70;;;13.60;99.90;;;;;;5033271;28;20781;-68
2022/10/01 11:52:26;;;;;;;2.50;1.70;;;13.60;99.90;;;;;;5025604;28;20462;-67
2022/10/01 12:01:22;;;;;;;5.03;1.93;;;13.90;99.90;;;;;;5029196;28;20418;-67
2022/10/01 12:04:04;;;;;;;1.80;1.37;;;13.90;99.90;;;;;;5026709;28;20427;-67
2022/10/01 12:06:36;;;;;;;1.80;1.30;;;14.00;99.90;;;;;;5029248;28;20462;-67
2022/10/01 12:09:11;;;;;;;2.33;1.50;;;14.10;99.90;;;;;;5028290;28;20990;-67
2022/10/01 12:11:46;;;;;;;3.30;1.80;;;14.20;99.90;;;;;;5026163;28;20484;-67
2022/10/01 12:14:18;;;;;;;2.63;1.60;;;14.20;99.90;;;;;;5029281;28;20494;-67
2022/10/01 12:17:16;;;;;;;1.97;1.40;;;14.20;99.90;;;;;;5027630;28;20430;-68
2022/10/01 12:19:46;;;;;;;2.67;1.50;;;14.30;99.90;;;;;;5023595;28;20407;-67
2022/10/01 12:22:29;;;;;;;2.73;1.83;;;14.30;99.90;;;;;;5024431;28;20508;-68
2022/10/01 12:24:56;;;;;;;2.10;1.80;;;14.30;99.90;;;;;;5022872;28;20411;-68
2022/10/01 12:27:36;;;;;;;2.37;1.63;;;14.30;99.90;;;;;;5025226;28;20963;-68
2022/10/01 12:30:09;;;;;;;2.20;1.60;;;14.40;99.90;;;;;;5020273;28;20465;-68
2022/10/01 12:32:59;;;;;;;3.10;1.43;;;14.40;99.90;;;;;;5019447;28;20537;-68
2022/10/01 12:35:52;;;;;;;1.90;1.47;;;14.50;99.90;;;;;;5032132;28;20459;-68
2022/10/01 12:38:41;;;;;;;2.40;1.67;;;14.50;99.90;;;;;;5028374;28;20445;-68
2022/10/01 12:41:26;;;;;;;1.80;1.30;;;14.50;99.90;;;;;;5023434;28;21024;-67
2022/10/01 12:44:31;;;;;;;2.03;1.47;;;14.60;99.90;;;;;;5025427;28;20518;-68
2022/10/01 12:47:20;;;;;;;2.00;1.80;;;14.50;99.90;;;;;;5029800;28;20989;-67
2022/10/01 12:49:58;;;;;;;2.37;1.30;;;14.60;99.90;;;;;;5031424;28;20415;-67
2022/10/01 12:52:58;;;;;;;1.80;1.50;;;14.60;99.90;;;;;;5022269;28;20454;-68
2022/10/01 12:55:55;;;;;;;2.10;1.53;;;14.70;99.90;;;;;;5028082;28;20459;-67
2022/10/01 12:58:50;;;;;;;1.60;1.23;;;14.70;99.90;;;;;;5028806;28;21015;-67
2022/10/01 13:01:24;;;;;;;2.30;1.63;;;14.80;99.90;;;;;;5014492;28;20426;-67
2022/10/01 13:04:12;;;;;;;2.27;1.50;;;14.80;99.90;;;;;;5031306;28;20476;-67
2022/10/01 13:07:06;;;;;;;2.27;1.60;;;14.80;99.90;;;;;;5033934;28;20419;-67
2022/10/01 13:09:46;;;;;;;2.47;1.77;;;14.80;99.90;;;;;;5023811;28;20427;-66
2022/10/01 13:12:40;;;;;;;1.80;1.37;;;14.80;99.90;;;;;;5025362;28;20438;-67
2022/10/01 13:15:20;;;;;;;1.70;1.33;;;14.90;99.90;;;;;;5029010;28;21179;-67
2022/10/01 13:18:15;;;;;;;2.47;1.70;;;15.10;99.90;;;;;;5031136;28;20476;-67
2022/10/01 13:21:13;;;;;;;2.87;1.80;;;15.10;99.90;;;;;;5021594;28;20427;-66
2022/10/01 13:24:08;;;;;;;1.80;1.43;;;15.20;99.90;;;;;;5028844;28;20430;-67
2022/10/01 13:26:56;;;;;;;2.40;1.60;;;15.30;99.90;;;;;;5025782;28;20502;-66